Time;durP1;ratioP1;P1;durP2;ratioP2;P2;SDS_P1;SDS_P2;PMS_P1;PMS_P2;Temp;Humidity;BMP_temperature;BMP_pressure;BME280_temperature;BME280_humidity;BME280_pressure;Samples;Min_cycle;Max_cycle;Signal;HPM_P1;HPM_P2
2023/01/06 00:01:22;;;;;;;9.70;3.03;;;;;;;;;;5103898;28;20051;-68
2023/01/06 00:03:50;;;;;;;8.68;3.20;;;;;;;;;;5087965;28;20052;-68
2023/01/06 00:06:16;;;;;;;8.70;2.58;;;;;;;;;;5093515;27;20120;-67
2023/01/06 00:08:43;;;;;;;8.57;2.72;;;;;;;;;;5093907;28;20051;-68
2023/01/06 00:11:13;;;;;;;10.60;3.05;;;;;;;;;;5095121;28;20562;-66
2023/01/06 00:13:39;;;;;;;5.80;2.97;;;;;;;;;;5099187;28;20048;-67
2023/01/06 00:16:07;;;;;;;10.73;3.45;;;;;;;;;;5095321;28;20127;-67
2023/01/06 00:18:33;;;;;;;10.90;3.47;;;;;;;;;;5095892;28;20066;-68
2023/01/06 00:21:00;;;;;;;7.35;3.35;;;;;;;;;;5088439;28;20043;-68
2023/01/06 00:23:27;;;;;;;7.85;3.25;;;;;;;;;;5099854;28;20105;-67
2023/01/06 00:25:53;;;;;;;7.20;3.10;;;;;;;;;;5103720;28;20385;-68
2023/01/06 00:28:19;;;;;;;8.65;3.38;;;;;;;;;;5077154;28;20112;-66
2023/01/06 00:30:46;;;;;;;7.78;3.60;;;;;;;;;;5098414;28;20051;-67
2023/01/06 00:33:12;;;;;;;7.38;3.08;;;;;;;;;;5074773;28;20111;-67
2023/01/06 00:35:38;;;;;;;6.82;3.20;;;;;;;;;;5100568;28;20055;-67
2023/01/06 00:38:05;;;;;;;7.97;3.20;;;;;;;;;;5092843;28;20065;-67
2023/01/06 00:40:31;;;;;;;8.65;3.13;;;;;;;;;;5094123;28;20039;-66
2023/01/06 00:42:57;;;;;;;6.70;3.00;;;;;;;;;;5095864;28;20048;-66
2023/01/06 00:45:24;;;;;;;9.93;2.97;;;;;;;;;;5075159;28;20056;-67
2023/01/06 00:47:50;;;;;;;9.18;3.25;;;;;;;;;;5095899;28;20039;-66
2023/01/06 00:50:16;;;;;;;6.15;3.00;;;;;;;;;;5083186;28;20049;-67
2023/01/06 00:52:43;;;;;;;8.38;3.13;;;;;;;;;;5076306;28;20044;-65
2023/01/06 00:55:09;;;;;;;6.82;2.78;;;;;;;;;;5094737;28;20052;-68
2023/01/06 00:57:38;;;;;;;11.77;3.17;;;;;;;;;;5092734;28;20039;-65
2023/01/06 01:00:05;;;;;;;10.18;3.30;;;;;;;;;;5092547;28;20051;-67
2023/01/06 01:02:31;;;;;;;6.80;3.03;;;;;;;;;;5090291;28;20103;-67
2023/01/06 01:04:58;;;;;;;7.78;3.03;;;;;;;;;;5102657;28;20075;-68
2023/01/06 01:07:24;;;;;;;6.18;2.70;;;;;;;;;;5097173;28;20355;-67
2023/01/06 01:09:50;;;;;;;8.80;3.35;;;;;;;;;;5104136;28;20068;-67
2023/01/06 01:12:16;;;;;;;10.43;2.95;;;;;;;;;;5104748;28;20056;-66
2023/01/06 01:14:46;;;;;;;6.13;2.60;;;;;;;;;;5097791;28;20066;-66
2023/01/06 01:17:13;;;;;;;7.95;2.80;;;;;;;;;;5093888;28;20109;-67
2023/01/06 01:19:40;;;;;;;6.25;3.33;;;;;;;;;;5090168;28;20076;-67
2023/01/06 01:22:06;;;;;;;6.65;2.58;;;;;;;;;;5084093;28;20058;-66
2023/01/06 01:24:32;;;;;;;4.88;2.40;;;;;;;;;;5100554;28;20115;-66
2023/01/06 01:26:59;;;;;;;12.30;2.88;;;;;;;;;;5102695;28;20043;-67
2023/01/06 01:29:25;;;;;;;5.82;3.00;;;;;;;;;;5102689;28;20101;-67
2023/01/06 01:31:52;;;;;;;6.97;2.90;;;;;;;;;;5094756;28;20043;-68
2023/01/06 01:34:19;;;;;;;9.70;3.15;;;;;;;;;;5105839;28;20059;-67
2023/01/06 01:36:46;;;;;;;8.52;3.05;;;;;;;;;;5104856;28;20044;-67
2023/01/06 01:39:13;;;;;;;6.28;2.72;;;;;;;;;;5107711;28;20059;-67
2023/01/06 01:41:40;;;;;;;8.65;2.97;;;;;;;;;;5084271;28;20044;-67
2023/01/06 01:44:25;;;;;;;8.25;2.90;;;;;;;;;;5096472;28;20048;-66
2023/01/06 01:46:52;;;;;;;6.80;2.65;;;;;;;;;;5096141;28;20044;-66
2023/01/06 01:49:21;;;;;;;4.75;2.50;;;;;;;;;;5098961;27;20056;-67
2023/01/06 01:51:48;;;;;;;6.28;2.63;;;;;;;;;;5118285;28;20059;-68
2023/01/06 01:54:18;;;;;;;5.07;2.90;;;;;;;;;;5095106;28;20051;-67
2023/01/06 01:56:47;;;;;;;7.20;3.08;;;;;;;;;;5112439;28;20488;-67
2023/01/06 01:59:16;;;;;;;6.50;2.60;;;;;;;;;;5100213;28;20055;-67
2023/01/06 02:01:43;;;;;;;6.63;2.80;;;;;;;;;;5100779;28;20047;-66
2023/01/06 02:04:10;;;;;;;6.78;2.70;;;;;;;;;;5099647;28;20052;-67
2023/01/06 02:06:36;;;;;;;5.55;2.08;;;;;;;;;;5073796;28;20043;-67
2023/01/06 02:09:08;;;;;;;6.40;2.15;;;;;;;;;;5085873;28;20377;-67
2023/01/06 02:11:36;;;;;;;5.93;2.10;;;;;;;;;;5089634;28;20048;-67
2023/01/06 02:14:07;;;;;;;6.63;1.98;;;;;;;;;;5092584;28;20051;-67
2023/01/06 02:16:40;;;;;;;4.53;1.98;;;;;;;;;;5089326;28;20121;-67
2023/01/06 02:19:16;;;;;;;3.83;1.80;;;;;;;;;;5100604;28;20036;-68
2023/01/06 02:22:02;;;;;;;5.55;2.10;;;;;;;;;;5091159;28;20047;-67
2023/01/06 02:24:37;;;;;;;3.50;1.90;;;;;;;;;;5098213;28;20048;-67
2023/01/06 02:27:12;;;;;;;4.78;1.70;;;;;;;;;;5094801;28;20056;-67
2023/01/06 02:29:47;;;;;;;4.38;1.50;;;;;;;;;;5064722;28;20048;-67
2023/01/06 02:32:20;;;;;;;6.28;1.90;;;;;;;;;;5101268;28;20097;-67
2023/01/06 02:34:52;;;;;;;4.72;2.00;;;;;;;;;;5091675;28;20048;-68
2023/01/06 02:37:47;;;;;;;3.28;1.73;;;;;;;;;;5111006;28;20066;-68
2023/01/06 02:40:52;;;;;;;3.95;1.83;;;;;;;;;;5007668;28;20057;-68
2023/01/06 02:43:36;;;;;;;4.30;2.03;;;;;;;;;;5025219;28;20064;-67
2023/01/06 02:46:10;;;;;;;5.45;2.20;;;;;;;;;;5022616;28;20049;-67
2023/01/06 02:48:39;;;;;;;7.60;2.22;;;;;;;;;;5072484;28;20054;-67
2023/01/06 02:51:10;;;;;;;5.20;2.13;;;;;;;;;;5096282;28;20507;-67
2023/01/06 02:53:49;;;;;;;8.15;2.38;;;;;;;;;;5091611;28;20055;-67
2023/01/06 02:56:16;;;;;;;7.38;2.45;;;;;;;;;;5102475;28;20048;-68
2023/01/06 02:58:47;;;;;;;9.00;2.22;;;;;;;;;;5090509;28;20059;-67
2023/01/06 03:01:22;;;;;;;5.60;2.30;;;;;;;;;;5102902;28;20541;-67
2023/01/06 03:03:50;;;;;;;6.82;2.40;;;;;;;;;;5095923;28;20046;-67
2023/01/06 03:06:18;;;;;;;4.55;1.85;;;;;;;;;;5109066;28;20036;-67
2023/01/06 03:08:46;;;;;;;8.25;2.22;;;;;;;;;;5097880;28;20092;-67
2023/01/06 03:11:12;;;;;;;6.20;2.30;;;;;;;;;;5092876;28;20064;-67
2023/01/06 03:13:45;;;;;;;9.02;1.80;;;;;;;;;;5106492;28;20289;-67
2023/01/06 03:16:12;;;;;;;4.35;2.25;;;;;;;;;;5088857;27;20657;-67
2023/01/06 03:18:40;;;;;;;4.72;1.90;;;;;;;;;;5104763;27;20047;-67
2023/01/06 03:21:18;;;;;;;3.90;1.48;;;;;;;;;;5088999;28;20553;-67
2023/01/06 03:23:44;;;;;;;7.75;1.80;;;;;;;;;;5104878;28;20097;-67
2023/01/06 03:26:11;;;;;;;5.25;2.08;;;;;;;;;;5090180;28;20075;-67
2023/01/06 03:28:37;;;;;;;5.93;1.77;;;;;;;;;;5099083;28;20093;-68
2023/01/06 03:31:04;;;;;;;4.20;1.65;;;;;;;;;;5082215;28;20044;-67
2023/01/06 03:33:56;;;;;;;6.93;1.73;;;;;;;;;;5098577;28;20048;-68
2023/01/06 03:36:26;;;;;;;3.55;1.35;;;;;;;;;;5060319;28;20043;-67
2023/01/06 03:38:59;;;;;;;4.72;1.38;;;;;;;;;;5079291;28;20048;-68
2023/01/06 03:44:37;;;;;;;7.03;1.20;;;;;;;;;;5109241;27;20069;-67
2023/01/06 03:47:14;;;;;;;4.85;1.40;;;;;;;;;;5083135;28;20040;-67
2023/01/06 03:49:52;;;;;;;2.45;1.40;;;;;;;;;;5099075;28;20123;-67
2023/01/06 03:52:28;;;;;;;6.00;2.03;;;;;;;;;;5114167;28;20044;-68
2023/01/06 03:55:15;;;;;;;5.72;1.42;;;;;;;;;;5096145;28;20048;-68
2023/01/06 03:57:43;;;;;;;5.28;1.27;;;;;;;;;;5103213;28;20051;-67
2023/01/06 04:00:11;;;;;;;3.75;1.15;;;;;;;;;;5108580;28;20078;-67
2023/01/06 04:02:37;;;;;;;;;;;;;;;;;;5116416;28;20097;-67
2023/01/06 04:05:10;;;;;;;3.35;1.25;;;;;;;;;;5111213;28;19935;-67
2023/01/06 04:07:37;;;;;;;4.43;1.25;;;;;;;;;;5102669;28;20044;-67
2023/01/06 04:10:03;;;;;;;3.03;1.13;;;;;;;;;;5100634;28;20048;-67
2023/01/06 04:12:39;;;;;;;4.38;1.48;;;;;;;;;;5111034;27;20427;-67
2023/01/06 04:15:07;;;;;;;6.75;1.50;;;;;;;;;;5115913;28;20128;-67
2023/01/06 04:17:33;;;;;;;6.75;1.35;;;;;;;;;;5082433;28;20092;-67
2023/01/06 04:20:00;;;;;;;4.45;1.20;;;;;;;;;;5107504;28;20043;-68
2023/01/06 04:22:26;;;;;;;6.18;1.17;;;;;;;;;;5105468;28;20050;-67
2023/01/06 04:24:52;;;;;;;3.25;1.00;;;;;;;;;;5102263;28;20538;-67
2023/01/06 04:27:19;;;;;;;2.70;1.00;;;;;;;;;;5114288;28;20097;-68
2023/01/06 04:29:45;;;;;;;4.00;1.58;;;;;;;;;;5102578;28;20108;-67
2023/01/06 04:32:11;;;;;;;5.43;1.40;;;;;;;;;;5101371;28;20108;-67
2023/01/06 04:34:38;;;;;;;2.20;1.02;;;;;;;;;;5111459;28;20054;-67
2023/01/06 04:37:04;;;;;;;4.53;1.10;;;;;;;;;;5110683;28;20044;-68
2023/01/06 04:39:30;;;;;;;2.53;0.90;;;;;;;;;;5107728;28;20043;-66
2023/01/06 04:41:57;;;;;;;4.43;1.13;;;;;;;;;;5101188;28;20043;-68
2023/01/06 04:44:23;;;;;;;4.15;1.00;;;;;;;;;;5106274;28;20040;-67
2023/01/06 04:46:49;;;;;;;5.43;1.60;;;;;;;;;;5103312;28;20065;-67
2023/01/06 04:49:16;;;;;;;3.45;1.10;;;;;;;;;;5105970;28;20052;-68
2023/01/06 04:51:42;;;;;;;5.22;1.58;;;;;;;;;;5111742;28;20648;-68
2023/01/06 04:54:08;;;;;;;5.28;0.90;;;;;;;;;;5097856;27;20058;-66
2023/01/06 04:56:34;;;;;;;4.22;1.00;;;;;;;;;;5114039;28;20059;-66
2023/01/06 04:59:01;;;;;;;4.10;1.13;;;;;;;;;;5110740;28;20138;-67
2023/01/06 05:01:27;;;;;;;2.63;1.02;;;;;;;;;;5114941;28;20408;-66
2023/01/06 05:03:54;;;;;;;4.43;1.23;;;;;;;;;;5096606;28;20046;-67
2023/01/06 05:06:20;;;;;;;4.30;1.00;;;;;;;;;;5100680;28;20496;-67
2023/01/06 05:08:47;;;;;;;6.57;1.30;;;;;;;;;;5116150;28;20054;-66
2023/01/06 05:11:14;;;;;;;1.67;1.02;;;;;;;;;;5099167;28;20109;-67
2023/01/06 05:13:41;;;;;;;5.82;1.35;;;;;;;;;;5111184;28;20492;-66
2023/01/06 05:16:08;;;;;;;2.47;1.02;;;;;;;;;;5106872;28;20051;-66
2023/01/06 05:18:35;;;;;;;6.60;1.60;;;;;;;;;;5102189;28;20530;-66
2023/01/06 05:21:01;;;;;;;2.80;1.20;;;;;;;;;;5096747;28;20048;-67
2023/01/06 05:23:27;;;;;;;2.10;1.00;;;;;;;;;;5104906;28;20048;-67
2023/01/06 05:25:54;;;;;;;4.32;1.10;;;;;;;;;;5121498;28;20483;-67
2023/01/06 05:28:20;;;;;;;3.03;1.33;;;;;;;;;;5099931;28;20656;-67
2023/01/06 05:30:47;;;;;;;3.60;1.10;;;;;;;;;;5109268;28;20056;-67
2023/01/06 05:33:13;;;;;;;3.33;1.00;;;;;;;;;;5085978;28;20047;-66
2023/01/06 05:35:39;;;;;;;4.10;1.00;;;;;;;;;;5102906;28;20063;-67
2023/01/06 05:38:06;;;;;;;2.70;0.82;;;;;;;;;;5114951;28;20058;-66
2023/01/06 05:40:33;;;;;;;3.00;1.30;;;;;;;;;;5104944;28;20048;-66
2023/01/06 05:42:59;;;;;;;3.92;1.00;;;;;;;;;;5108057;28;20066;-67
2023/01/06 05:45:26;;;;;;;4.90;1.13;;;;;;;;;;5109784;28;20583;-66
2023/01/06 05:47:52;;;;;;;5.22;0.90;;;;;;;;;;5104498;28;20059;-68
2023/01/06 05:50:18;;;;;;;3.70;1.02;;;;;;;;;;5092606;28;20058;-66
2023/01/06 05:52:45;;;;;;;3.15;0.90;;;;;;;;;;5120439;28;20051;-66
2023/01/06 05:55:11;;;;;;;4.00;1.00;;;;;;;;;;5115061;28;20047;-67
2023/01/06 05:57:37;;;;;;;1.38;0.80;;;;;;;;;;5102701;28;20107;-66
2023/01/06 06:00:04;;;;;;;0.98;0.90;;;;;;;;;;5109032;28;20481;-68
2023/01/06 06:02:31;;;;;;;7.35;1.23;;;;;;;;;;5087658;28;20044;-66
2023/01/06 06:04:57;;;;;;;2.70;0.93;;;;;;;;;;5096191;28;20490;-67
2023/01/06 06:07:24;;;;;;;0.90;0.70;;;;;;;;;;5095865;28;20044;-66
2023/01/06 06:09:50;;;;;;;2.22;0.85;;;;;;;;;;5100921;28;20048;-66
2023/01/06 06:12:16;;;;;;;3.17;1.00;;;;;;;;;;5105861;28;20056;-66
2023/01/06 06:14:43;;;;;;;2.25;1.20;;;;;;;;;;5097998;27;20051;-66
2023/01/06 06:17:09;;;;;;;3.00;1.15;;;;;;;;;;5094925;28;20050;-68
2023/01/06 06:19:35;;;;;;;2.20;1.20;;;;;;;;;;5109390;28;20043;-66
2023/01/06 06:22:02;;;;;;;6.10;1.48;;;;;;;;;;5110996;28;20074;-67
2023/01/06 06:24:28;;;;;;;2.28;1.10;;;;;;;;;;5100888;28;20583;-66
2023/01/06 06:26:54;;;;;;;3.13;1.30;;;;;;;;;;5110997;28;20055;-67
2023/01/06 06:29:21;;;;;;;3.28;1.55;;;;;;;;;;5111715;28;20138;-67
2023/01/06 06:31:47;;;;;;;4.68;1.20;;;;;;;;;;5087808;28;20058;-67
2023/01/06 06:34:13;;;;;;;5.22;1.23;;;;;;;;;;5106589;28;20055;-67
2023/01/06 06:36:40;;;;;;;3.97;1.48;;;;;;;;;;5099357;28;20047;-67
2023/01/06 06:39:06;;;;;;;4.00;1.88;;;;;;;;;;5111816;28;20044;-66
2023/01/06 06:41:32;;;;;;;1.73;0.90;;;;;;;;;;5106202;28;20408;-67
2023/01/06 06:43:59;;;;;;;2.80;1.08;;;;;;;;;;5083738;28;20757;-68
2023/01/06 06:46:25;;;;;;;4.90;1.15;;;;;;;;;;5094976;28;20063;-67
2023/01/06 06:48:51;;;;;;;6.10;1.25;;;;;;;;;;5095597;28;20048;-65
2023/01/06 06:51:19;;;;;;;2.20;1.00;;;;;;;;;;5098665;28;20094;-66
2023/01/06 06:53:46;;;;;;;2.80;1.25;;;;;;;;;;5092546;28;20048;-66
2023/01/06 06:56:13;;;;;;;3.53;1.38;;;;;;;;;;5104736;28;20062;-66
2023/01/06 06:58:39;;;;;;;2.15;1.35;;;;;;;;;;5103709;28;20619;-66
2023/01/06 07:01:06;;;;;;;3.67;1.17;;;;;;;;;;5103661;28;20043;-66
2023/01/06 07:03:33;;;;;;;6.03;1.48;;;;;;;;;;5113659;27;20431;-66
2023/01/06 07:05:59;;;;;;;1.20;1.10;;;;;;;;;;5093436;28;20047;-66
2023/01/06 07:08:26;;;;;;;4.18;1.88;;;;;;;;;;5108458;28;20498;-66
2023/01/06 07:10:53;;;;;;;3.72;1.45;;;;;;;;;;5104520;28;20040;-66
2023/01/06 07:13:19;;;;;;;3.30;1.25;;;;;;;;;;5098146;28;20059;-67
2023/01/06 07:15:45;;;;;;;3.35;1.40;;;;;;;;;;5104005;28;20051;-66
2023/01/06 07:18:11;;;;;;;3.25;1.35;;;;;;;;;;5097844;28;20048;-66
2023/01/06 07:20:38;;;;;;;1.42;1.10;;;;;;;;;;5105879;28;20056;-66
2023/01/06 07:23:04;;;;;;;2.60;1.40;;;;;;;;;;5098680;28;20048;-66
2023/01/06 07:25:30;;;;;;;3.45;1.23;;;;;;;;;;5096541;28;20507;-66
2023/01/06 07:27:58;;;;;;;2.20;1.30;;;;;;;;;;5096740;28;20048;-66
2023/01/06 07:30:25;;;;;;;2.90;1.38;;;;;;;;;;5103093;28;20137;-66
2023/01/06 07:32:51;;;;;;;5.85;1.50;;;;;;;;;;5104050;28;20057;-65
2023/01/06 07:35:18;;;;;;;3.28;1.50;;;;;;;;;;5097479;27;20098;-66
2023/01/06 07:37:44;;;;;;;2.17;1.60;;;;;;;;;;5102533;28;20044;-66
2023/01/06 07:40:11;;;;;;;3.10;1.90;;;;;;;;;;5092337;28;20044;-65
2023/01/06 07:42:37;;;;;;;2.92;1.90;;;;;;;;;;5097405;28;20050;-67
2023/01/06 07:45:04;;;;;;;5.03;2.03;;;;;;;;;;5106116;28;20133;-66
2023/01/06 07:47:30;;;;;;;2.85;2.03;;;;;;;;;;5112062;28;20047;-66
2023/01/06 07:49:56;;;;;;;5.20;1.98;;;;;;;;;;5112312;27;20036;-66
2023/01/06 07:52:23;;;;;;;3.95;2.28;;;;;;;;;;5096065;28;20051;-66
2023/01/06 07:54:49;;;;;;;6.32;2.40;;;;;;;;;;5101168;28;20059;-68
2023/01/06 07:57:15;;;;;;;4.07;2.38;;;;;;;;;;5096436;28;20488;-69
2023/01/06 07:59:43;;;;;;;2.97;2.45;;;;;;;;;;5104315;27;20524;-68
2023/01/06 08:02:10;;;;;;;3.08;2.47;;;;;;;;;;5091467;28;20055;-69
2023/01/06 08:04:36;;;;;;;4.95;3.03;;;;;;;;;;5099495;28;20044;-69
2023/01/06 08:07:03;;;;;;;5.22;3.35;;;;;;;;;;5099918;28;20052;-69
2023/01/06 08:09:29;;;;;;;4.78;3.00;;;;;;;;;;5088726;28;20048;-69
2023/01/06 08:11:56;;;;;;;6.15;4.32;;;;;;;;;;5090789;28;20044;-69
2023/01/06 08:14:23;;;;;;;4.72;3.53;;;;;;;;;;5079928;28;20127;-69
2023/01/06 08:16:49;;;;;;;5.93;3.58;;;;;;;;;;5093595;28;20070;-69
2023/01/06 08:19:15;;;;;;;5.78;3.95;;;;;;;;;;5092389;28;20052;-69
2023/01/06 08:21:41;;;;;;;4.53;3.17;;;;;;;;;;5090730;28;20040;-68
2023/01/06 08:24:08;;;;;;;4.25;3.58;;;;;;;;;;5093852;28;20048;-69
2023/01/06 08:26:34;;;;;;;3.80;3.40;;;;;;;;;;5091337;28;20044;-68
2023/01/06 08:29:00;;;;;;;3.95;3.50;;;;;;;;;;5096678;28;20414;-68
2023/01/06 08:31:27;;;;;;;4.18;3.50;;;;;;;;;;5083461;28;20048;-68
2023/01/06 08:33:53;;;;;;;5.53;3.83;;;;;;;;;;5089343;28;20293;-68
2023/01/06 08:36:21;;;;;;;5.28;3.70;;;;;;;;;;5098375;28;20063;-68
2023/01/06 08:38:47;;;;;;;3.17;2.88;;;;;;;;;;5072631;28;20044;-68
2023/01/06 08:41:14;;;;;;;3.35;3.00;;;;;;;;;;5095445;28;20492;-68
2023/01/06 08:43:41;;;;;;;3.25;2.90;;;;;;;;;;5093271;28;20039;-68
2023/01/06 08:46:12;;;;;;;3.72;3.20;;;;;;;;;;5092362;27;20048;-68
2023/01/06 08:48:39;;;;;;;4.70;3.75;;;;;;;;;;5085743;28;20062;-68
2023/01/06 08:51:06;;;;;;;5.35;4.10;;;;;;;;;;5094575;28;20047;-68
2023/01/06 08:53:33;;;;;;;5.80;4.63;;;;;;;;;;5101020;28;20514;-69
2023/01/06 08:55:59;;;;;;;5.88;4.18;;;;;;;;;;5096488;28;20181;-68
2023/01/06 08:58:26;;;;;;;5.90;4.30;;;;;;;;;;5099665;28;20420;-68
2023/01/06 09:00:52;;;;;;;6.60;4.43;;;;;;;;;;5100183;28;20074;-69
2023/01/06 09:03:19;;;;;;;7.75;4.47;;;;;;;;;;5106319;28;20067;-68
2023/01/06 09:05:54;;;;;;;5.20;4.10;;;;;;;;;;5083288;28;20044;-68
2023/01/06 09:08:20;;;;;;;5.80;4.20;;;;;;;;;;5080588;28;20048;-68
2023/01/06 09:10:47;;;;;;;4.53;3.58;;;;;;;;;;5094326;28;20043;-67
2023/01/06 09:13:14;;;;;;;3.83;2.75;;;;;;;;;;5092471;28;20081;-68
2023/01/06 09:15:41;;;;;;;6.03;2.95;;;;;;;;;;5100039;28;20139;-68
2023/01/06 09:18:09;;;;;;;4.93;2.20;;;;;;;;;;5093758;28;20154;-67
2023/01/06 09:20:35;;;;;;;4.28;1.98;;;;;;;;;;5105856;28;20081;-68
2023/01/06 09:23:02;;;;;;;9.35;2.28;;;;;;;;;;5094640;28;20046;-67
2023/01/06 09:25:29;;;;;;;6.70;1.98;;;;;;;;;;5085370;28;20424;-69
2023/01/06 09:27:56;;;;;;;6.35;2.08;;;;;;;;;;5098803;28;20086;-68
2023/01/06 09:30:24;;;;;;;4.95;1.80;;;;;;;;;;5096494;28;20415;-69
2023/01/06 09:32:50;;;;;;;5.80;2.20;;;;;;;;;;5091505;28;20127;-69
2023/01/06 09:35:16;;;;;;;5.30;2.15;;;;;;;;;;5097508;28;20481;-69
2023/01/06 09:37:43;;;;;;;3.67;1.80;;;;;;;;;;5084089;28;20051;-68
2023/01/06 09:40:14;;;;;;;4.90;1.90;;;;;;;;;;5102005;28;20062;-68
2023/01/06 09:42:59;;;;;;;6.53;2.20;;;;;;;;;;5089652;28;20531;-68
2023/01/06 09:45:36;;;;;;;9.23;3.35;;;;;;;;;;5099317;28;20066;-68
2023/01/06 09:48:09;;;;;;;5.28;2.53;;;;;;;;;;5093347;28;20096;-67
2023/01/06 09:50:41;;;;;;;7.07;2.60;;;;;;;;;;5102201;28;20047;-67
2023/01/06 09:53:33;;;;;;;8.68;2.55;;;;;;;;;;5087358;28;20141;-68
2023/01/06 09:56:02;;;;;;;6.07;1.90;;;;;;;;;;5095444;28;20047;-67
2023/01/06 09:58:28;;;;;;;5.68;2.22;;;;;;;;;;5099800;28;20487;-67
2023/01/06 10:00:55;;;;;;;6.38;2.08;;;;;;;;;;5085691;28;20039;-67
2023/01/06 10:03:23;;;;;;;5.93;1.98;;;;;;;;;;5092521;28;20036;-67
2023/01/06 10:05:50;;;;;;;6.32;1.77;;;;;;;;;;5092420;28;20087;-67
2023/01/06 10:08:16;;;;;;;9.13;2.22;;;;;;;;;;5087051;28;20075;-67
2023/01/06 10:10:51;;;;;;;3.80;1.88;;;;;;;;;;5095250;28;20070;-66
2023/01/06 10:13:27;;;;;;;8.85;2.22;;;;;;;;;;5103179;28;20051;-67
2023/01/06 10:15:53;;;;;;;6.90;1.90;;;;;;;;;;5096711;28;20106;-67
2023/01/06 10:18:22;;;;;;;6.70;1.73;;;;;;;;;;5092232;28;20055;-68
2023/01/06 10:21:01;;;;;;;6.00;1.90;;;;;;;;;;5092064;28;20158;-67
2023/01/06 10:23:30;;;;;;;9.18;1.48;;;;;;;;;;5089485;28;20048;-68
2023/01/06 10:26:04;;;;;;;7.00;1.85;;;;;;;;;;5094998;28;20043;-67
2023/01/06 10:28:33;;;;;;;9.02;1.63;;;;;;;;;;5086786;28;21183;-67
2023/01/06 10:31:02;;;;;;;1.85;1.20;;;;;;;;;;5101136;28;20511;-67
2023/01/06 10:33:28;;;;;;;;;;;;;;;;;;5092355;28;20455;-67
2023/01/06 10:35:55;;;;;;;5.75;1.48;;;;;;;;;;5082842;28;19923;-68
2023/01/06 10:38:23;;;;;;;10.05;1.95;;;;;;;;;;5092844;28;20044;-68
2023/01/06 10:40:50;;;;;;;7.60;1.30;;;;;;;;;;5091168;28;20553;-68
2023/01/06 10:43:21;;;;;;;4.68;1.20;;;;;;;;;;5096315;28;20074;-67
2023/01/06 10:45:48;;;;;;;7.32;1.33;;;;;;;;;;5092067;28;20601;-67
2023/01/06 10:48:19;;;;;;;6.90;1.00;;;;;;;;;;5091967;27;20109;-68
2023/01/06 10:50:46;;;;;;;6.53;1.30;;;;;;;;;;5077726;28;20491;-67
2023/01/06 10:53:13;;;;;;;3.20;0.85;;;;;;;;;;5084770;28;20060;-68
2023/01/06 10:55:53;;;;;;;4.85;1.10;;;;;;;;;;5093333;28;20296;-67
2023/01/06 10:58:29;;;;;;;6.35;1.00;;;;;;;;;;5083747;28;20458;-68
2023/01/06 11:00:56;;;;;;;8.52;1.65;;;;;;;;;;5093200;28;20066;-68
2023/01/06 11:03:23;;;;;;;4.95;0.90;;;;;;;;;;5080145;28;20097;-68
2023/01/06 11:06:17;;;;;;;6.97;1.08;;;;;;;;;;5094104;28;20071;-67
2023/01/06 11:08:43;;;;;;;9.25;1.55;;;;;;;;;;5093028;28;20119;-67
2023/01/06 11:11:11;;;;;;;4.30;1.02;;;;;;;;;;5086298;28;20512;-68
2023/01/06 11:13:54;;;;;;;4.65;1.05;;;;;;;;;;5090949;28;20123;-68
2023/01/06 11:16:23;;;;;;;7.32;1.75;;;;;;;;;;5083269;28;20127;-67
2023/01/06 11:18:51;;;;;;;4.90;1.20;;;;;;;;;;5086334;28;20052;-68
2023/01/06 11:21:18;;;;;;;11.38;1.05;;;;;;;;;;5084837;28;20048;-67
2023/01/06 11:23:45;;;;;;;5.32;0.77;;;;;;;;;;5092235;28;20431;-67
2023/01/06 11:26:12;;;;;;;6.65;0.90;;;;;;;;;;5082635;28;20552;-67
2023/01/06 11:28:39;;;;;;;3.63;0.60;;;;;;;;;;5090072;28;20385;-66
2023/01/06 11:31:22;;;;;;;4.35;0.80;;;;;;;;;;5094862;28;20134;-67
2023/01/06 11:33:53;;;;;;;3.75;0.80;;;;;;;;;;5084305;28;20127;-66
2023/01/06 11:36:21;;;;;;;4.25;0.95;;;;;;;;;;5091680;28;20113;-67
2023/01/06 11:38:50;;;;;;;6.10;0.98;;;;;;;;;;5084659;28;20484;-67
2023/01/06 11:41:29;;;;;;;7.93;1.73;;;;;;;;;;5092506;28;20056;-66
2023/01/06 11:44:06;;;;;;;6.50;0.82;;;;;;;;;;5093858;27;20748;-67
2023/01/06 11:46:32;;;;;;;8.35;0.88;;;;;;;;;;5084966;28;20484;-66
2023/01/06 11:49:05;;;;;;;8.38;1.23;;;;;;;;;;5092633;28;20579;-66
2023/01/06 11:51:52;;;;;;;4.35;0.88;;;;;;;;;;5086764;28;20062;-67
2023/01/06 11:54:24;;;;;;;3.75;1.00;;;;;;;;;;5084323;28;20048;-66
2023/01/06 11:57:01;;;;;;;6.93;1.00;;;;;;;;;;5083226;28;20056;-67
2023/01/06 11:59:35;;;;;;;4.38;1.40;;;;;;;;;;5092223;27;20050;-67
2023/01/06 12:02:01;;;;;;;5.43;1.05;;;;;;;;;;5088260;28;20568;-67
2023/01/06 12:04:33;;;;;;;5.55;0.77;;;;;;;;;;5094002;28;20067;-67
2023/01/06 12:07:19;;;;;;;5.32;0.90;;;;;;;;;;5089655;28;20043;-67
2023/01/06 12:09:45;;;;;;;4.07;1.00;;;;;;;;;;5092385;28;20590;-69
2023/01/06 12:12:15;;;;;;;6.55;0.98;;;;;;;;;;5089918;28;20848;-69
2023/01/06 12:14:42;;;;;;;7.72;0.88;;;;;;;;;;5088452;28;20051;-69
2023/01/06 12:17:29;;;;;;;5.07;1.15;;;;;;;;;;5093529;28;20035;-68
2023/01/06 12:19:55;;;;;;;6.45;1.20;;;;;;;;;;5083214;28;20044;-67
2023/01/06 12:22:37;;;;;;;2.47;0.90;;;;;;;;;;5091923;28;20047;-68
2023/01/06 12:25:05;;;;;;;5.82;1.20;;;;;;;;;;5089497;28;20039;-69
2023/01/06 12:27:38;;;;;;;3.78;0.90;;;;;;;;;;5087721;28;20151;-68
2023/01/06 12:30:07;;;;;;;9.73;1.33;;;;;;;;;;5096630;28;20051;-67
2023/01/06 12:32:37;;;;;;;4.72;1.23;;;;;;;;;;5091976;28;20489;-68
2023/01/06 12:35:05;;;;;;;4.80;0.93;;;;;;;;;;5104962;28;20068;-68
2023/01/06 12:37:38;;;;;;;2.33;0.90;;;;;;;;;;5098989;28;20047;-69
2023/01/06 12:40:23;;;;;;;5.82;0.77;;;;;;;;;;5082489;28;20272;-68
2023/01/06 12:43:02;;;;;;;5.55;0.70;;;;;;;;;;5091184;28;20065;-68
2023/01/06 12:45:35;;;;;;;4.63;0.70;;;;;;;;;;5100055;28;20175;-68
2023/01/06 12:48:12;;;;;;;4.38;0.80;;;;;;;;;;5089761;28;20055;-68
2023/01/06 12:50:40;;;;;;;3.35;0.65;;;;;;;;;;5095007;28;20040;-68
2023/01/06 12:53:11;;;;;;;4.70;0.70;;;;;;;;;;5095345;28;20127;-69
2023/01/06 12:56:05;;;;;;;3.47;0.85;;;;;;;;;;5088316;28;20284;-69
2023/01/06 12:58:40;;;;;;;2.85;0.80;;;;;;;;;;5088049;28;20147;-70
2023/01/06 13:01:11;;;;;;;6.35;0.80;;;;;;;;;;5087002;28;20051;-69
2023/01/06 13:03:56;;;;;;;3.60;0.63;;;;;;;;;;5095735;28;20069;-69
2023/01/06 13:06:46;;;;;;;4.43;1.00;;;;;;;;;;5091615;28;20055;-69
2023/01/06 13:09:24;;;;;;;2.28;0.60;;;;;;;;;;5098560;28;20434;-68
2023/01/06 13:12:02;;;;;;;1.10;0.43;;;;;;;;;;5084225;28;20486;-69
2023/01/06 13:14:35;;;;;;;3.65;0.68;;;;;;;;;;5096360;28;20406;-68
2023/01/06 13:17:02;;;;;;;1.90;0.47;;;;;;;;;;5091920;28;20050;-68
2023/01/06 13:19:35;;;;;;;3.58;0.65;;;;;;;;;;5104974;28;20040;-68
2023/01/06 13:22:02;;;;;;;1.50;0.50;;;;;;;;;;5102478;28;20047;-69
2023/01/06 13:24:47;;;;;;;4.78;0.80;;;;;;;;;;5103150;28;20069;-68
2023/01/06 13:27:36;;;;;;;2.15;0.63;;;;;;;;;;5111749;28;20060;-67
2023/01/06 13:30:02;;;;;;;;;;;;;;;;;;5104723;28;20056;-67
2023/01/06 13:32:48;;;;;;;2.17;0.70;;;;;;;;;;5105075;28;19926;-67
2023/01/06 13:35:33;;;;;;;2.22;0.70;;;;;;;;;;5097562;28;20051;-69
2023/01/06 13:38:05;;;;;;;5.22;0.77;;;;;;;;;;5102659;28;20044;-70
2023/01/06 13:40:34;;;;;;;3.72;0.70;;;;;;;;;;5095627;28;20052;-69
2023/01/06 13:43:05;;;;;;;4.75;0.77;;;;;;;;;;5114757;28;20123;-69
2023/01/06 13:45:37;;;;;;;3.15;0.60;;;;;;;;;;5104107;28;20516;-69
2023/01/06 13:48:07;;;;;;;2.85;0.75;;;;;;;;;;5099142;28;20043;-69
2023/01/06 13:50:35;;;;;;;5.25;0.98;;;;;;;;;;5098705;28;20083;-68
2023/01/06 13:53:03;;;;;;;1.30;0.60;;;;;;;;;;5093753;28;20124;-69
2023/01/06 13:55:31;;;;;;;3.22;0.60;;;;;;;;;;5105079;28;20291;-68
2023/01/06 13:58:17;;;;;;;3.47;0.63;;;;;;;;;;5095041;28;20047;-67
2023/01/06 14:00:43;;;;;;;3.42;0.68;;;;;;;;;;5097789;28;20464;-66
2023/01/06 14:03:19;;;;;;;7.05;1.17;;;;;;;;;;5095813;27;20835;-68
2023/01/06 14:05:45;;;;;;;4.63;0.70;;;;;;;;;;5092998;28;20503;-67
2023/01/06 14:08:16;;;;;;;2.85;0.68;;;;;;;;;;5101266;28;20544;-67
2023/01/06 14:10:44;;;;;;;2.80;0.70;;;;;;;;;;5092872;28;20051;-66
2023/01/06 14:13:24;;;;;;;1.65;0.57;;;;;;;;;;5102148;28;20055;-66
2023/01/06 14:15:54;;;;;;;2.75;0.60;;;;;;;;;;5091260;28;20052;-67
2023/01/06 14:18:35;;;;;;;2.72;0.50;;;;;;;;;;5090760;28;20552;-66
2023/01/06 14:21:03;;;;;;;0.73;0.40;;;;;;;;;;5085767;28;20386;-67
2023/01/06 14:23:30;;;;;;;4.43;0.90;;;;;;;;;;5110369;28;20048;-66
2023/01/06 14:25:57;;;;;;;2.38;0.60;;;;;;;;;;5101162;28;20048;-67
2023/01/06 14:28:25;;;;;;;2.55;0.80;;;;;;;;;;5098768;28;20071;-67
2023/01/06 14:31:11;;;;;;;2.72;0.70;;;;;;;;;;5103741;28;20574;-66
2023/01/06 14:33:38;;;;;;;4.55;0.70;;;;;;;;;;5079118;28;20052;-67
2023/01/06 14:36:09;;;;;;;1.88;0.55;;;;;;;;;;5091368;28;20473;-65
2023/01/06 14:38:41;;;;;;;4.18;1.23;;;;;;;;;;5094891;28;20068;-66
2023/01/06 14:41:19;;;;;;;3.35;0.80;;;;;;;;;;5092292;28;20481;-66
2023/01/06 14:43:53;;;;;;;3.88;0.93;;;;;;;;;;5103824;28;20055;-66
2023/01/06 14:46:28;;;;;;;2.65;0.75;;;;;;;;;;5095268;28;20500;-66
2023/01/06 14:48:58;;;;;;;2.85;0.65;;;;;;;;;;5097551;28;20069;-64
2023/01/06 14:51:25;;;;;;;4.60;0.80;;;;;;;;;;5079212;28;20040;-66
2023/01/06 14:53:56;;;;;;;2.28;0.70;;;;;;;;;;5096330;28;20047;-65
2023/01/06 14:56:24;;;;;;;2.42;0.70;;;;;;;;;;5097124;28;20044;-66
2023/01/06 14:59:00;;;;;;;3.50;0.60;;;;;;;;;;5102023;28;20484;-67
2023/01/06 15:01:30;;;;;;;2.25;0.60;;;;;;;;;;5088183;28;20048;-69